createdAt,value
2023-01-05T00:01:32.231Z,3.00
2023-01-05T00:03:59.649Z,2.58
2023-01-05T00:06:27.005Z,3.05
2023-01-05T00:08:54.365Z,4.20
2023-01-05T00:11:42.103Z,2.65
2023-01-05T00:14:36.799Z,3.53
2023-01-05T00:17:22.826Z,2.78
2023-01-05T00:20:08.585Z,3.28
2023-01-05T00:22:45.962Z,3.30
2023-01-05T00:25:25.335Z,3.85
2023-01-05T00:27:54.031Z,3.55
2023-01-05T00:30:24.413Z,3.67
2023-01-05T00:32:52.665Z,3.47
2023-01-05T00:35:21.246Z,3.65
2023-01-05T00:37:49.408Z,6.03
2023-01-05T00:40:19.276Z,4.22
2023-01-05T00:42:47.349Z,3.13
2023-01-05T00:45:17.098Z,3.22
2023-01-05T00:47:45.252Z,3.97
2023-01-05T00:50:15.773Z,3.63
2023-01-05T00:52:44.393Z,2.90
2023-01-05T00:55:11.917Z,2.40
2023-01-05T00:57:39.948Z,4.45
2023-01-05T01:00:12.649Z,4.95
2023-01-05T01:02:39.968Z,3.83
2023-01-05T01:05:07.772Z,3.60
2023-01-05T01:07:35.003Z,3.58
2023-01-05T01:10:05.370Z,3.58
2023-01-05T01:12:32.655Z,4.00
2023-01-05T01:14:59.908Z,3.53
2023-01-05T01:17:27.239Z,4.93
2023-01-05T01:19:54.455Z,4.05
2023-01-05T01:22:21.668Z,4.32
2023-01-05T01:24:48.830Z,3.55
2023-01-05T01:27:16.054Z,3.97
2023-01-05T01:29:43.320Z,3.80
2023-01-05T01:32:10.584Z,5.82
2023-01-05T01:34:39.565Z,3.60
2023-01-05T01:37:06.924Z,3.35
2023-01-05T01:39:39.530Z,4.18
2023-01-05T01:42:15.604Z,3.55
2023-01-05T01:44:56.269Z,4.93
2023-01-05T01:47:45.704Z,4.03
2023-01-05T01:50:27.989Z,3.97
2023-01-05T01:53:00.209Z,3.75
2023-01-05T01:55:28.427Z,5.07
2023-01-05T01:57:56.410Z,5.00
2023-01-05T02:00:24.162Z,5.60
2023-01-05T02:02:54.693Z,5.68
2023-01-05T02:05:33.358Z,3.85
2023-01-05T02:08:00.873Z,4.55
2023-01-05T02:10:55.497Z,4.22
2023-01-05T02:14:00.116Z,3.78
2023-01-05T02:16:52.077Z,4.82
2023-01-05T02:19:46.779Z,3.08
2023-01-05T02:25:38.486Z,4.72
2023-01-05T02:28:14.856Z,7.13
2023-01-05T02:30:59.878Z,3.25
2023-01-05T02:33:56.235Z,3.45
2023-01-05T02:36:40.641Z,2.70
2023-01-05T02:39:18.747Z,3.55
2023-01-05T02:42:03.307Z,3.72
2023-01-05T02:44:32.759Z,3.90
2023-01-05T02:47:25.900Z,3.10
2023-01-05T02:50:01.124Z,3.85
2023-01-05T02:52:38.013Z,3.83
2023-01-05T02:55:09.603Z,3.17
2023-01-05T02:57:47.983Z,4.40
2023-01-05T03:00:43.058Z,3.28
2023-01-05T03:03:14.714Z,3.90
2023-01-05T03:05:52.361Z,3.33
2023-01-05T03:08:30.794Z,3.28
2023-01-05T03:11:25.201Z,3.67
2023-01-05T03:14:16.758Z,4.00
2023-01-05T03:16:47.894Z,4.38
2023-01-05T03:19:40.065Z,4.97
2023-01-05T03:22:40.646Z,4.13
2023-01-05T03:25:28.499Z,3.47
2023-01-05T03:28:16.591Z,3.45
2023-01-05T03:31:24.117Z,4.22
2023-01-05T03:34:28.023Z,5.40
2023-01-05T03:37:02.266Z,4.88
2023-01-05T03:39:31.821Z,3.42
2023-01-05T03:42:02.382Z,4.50
2023-01-05T03:44:30.371Z,3.88
2023-01-05T03:46:58.516Z,3.45
2023-01-05T03:49:25.839Z,3.92
2023-01-05T03:51:53.020Z,2.97
2023-01-05T03:54:20.240Z,3.78
2023-01-05T03:56:48.426Z,6.38
2023-01-05T03:59:15.916Z,4.15
2023-01-05T04:01:44.052Z,4.05
2023-01-05T04:04:14.272Z,4.05
2023-01-05T04:06:41.918Z,4.90
2023-01-05T04:09:11.102Z,4.78
2023-01-05T04:11:41.507Z,5.63
2023-01-05T04:14:09.261Z,4.70
2023-01-05T04:16:36.608Z,4.82
2023-01-05T04:19:13.429Z,4.20
2023-01-05T04:21:41.301Z,5.78
2023-01-05T04:24:10.905Z,4.55
2023-01-05T04:26:41.960Z,3.72
2023-01-05T04:29:11.354Z,3.80
2023-01-05T04:31:39.809Z,3.80
2023-01-05T04:34:08.284Z,5.00
2023-01-05T04:36:36.765Z,5.47
2023-01-05T04:39:04.572Z,3.50
2023-01-05T04:41:32.423Z,3.80
2023-01-05T04:43:59.875Z,5.43
2023-01-05T04:46:28.231Z,5.07
2023-01-05T04:48:56.875Z,5.43
2023-01-05T04:51:24.826Z,3.42
2023-01-05T04:53:52.066Z,4.03
2023-01-05T04:56:22.508Z,4.05
2023-01-05T04:58:50.069Z,4.50
2023-01-05T05:01:17.425Z,4.95
2023-01-05T05:03:49.767Z,3.63
2023-01-05T05:06:19.979Z,4.15
2023-01-05T05:08:49.242Z,4.38
2023-01-05T05:11:16.548Z,4.68
2023-01-05T05:13:46.612Z,5.78
2023-01-05T05:16:14.456Z,4.30
2023-01-05T05:18:44.229Z,5.03
2023-01-05T05:21:16.788Z,4.25
2023-01-05T05:23:44.475Z,4.28
2023-01-05T05:26:11.739Z,3.88
2023-01-05T05:28:39.090Z,4.13
2023-01-05T05:31:06.345Z,3.83
2023-01-05T05:33:33.615Z,4.30
2023-01-05T05:36:00.935Z,3.85
2023-01-05T05:38:28.123Z,5.97
2023-01-05T05:40:55.390Z,3.78
2023-01-05T05:43:22.626Z,4.07
2023-01-05T05:45:50.838Z,4.30
2023-01-05T05:48:19.430Z,3.75
2023-01-05T05:50:46.679Z,4.13
2023-01-05T05:53:13.969Z,4.15
2023-01-05T05:55:41.295Z,3.85
2023-01-05T05:58:09.250Z,4.85
2023-01-05T06:00:36.572Z,6.13
2023-01-05T06:03:03.933Z,3.65
2023-01-05T06:05:31.210Z,3.10
2023-01-05T06:07:58.434Z,4.50
2023-01-05T06:10:26.010Z,3.55
2023-01-05T06:12:54.519Z,3.65
2023-01-05T06:15:23.263Z,5.57
2023-01-05T06:17:50.712Z,6.07
2023-01-05T06:20:18.214Z,3.85
2023-01-05T06:22:45.443Z,3.60
2023-01-05T06:25:12.709Z,4.05
2023-01-05T06:27:39.907Z,3.55
2023-01-05T06:30:07.820Z,4.93
2023-01-05T06:32:35.049Z,4.45
2023-01-05T06:35:02.317Z,3.33
2023-01-05T06:37:29.571Z,3.42
2023-01-05T06:39:56.828Z,4.45
2023-01-05T06:42:24.283Z,3.67
2023-01-05T06:44:51.694Z,3.50
2023-01-05T06:47:19.897Z,5.00
2023-01-05T06:49:47.403Z,4.95
2023-01-05T06:52:16.928Z,3.75
2023-01-05T06:54:44.987Z,4.25
2023-01-05T06:57:12.202Z,2.70
2023-01-05T06:59:39.476Z,3.78
2023-01-05T07:02:13.251Z,4.35
2023-01-05T07:04:40.584Z,2.47
2023-01-05T07:07:08.898Z,2.60
2023-01-05T07:09:36.122Z,3.72
2023-01-05T07:12:03.516Z,3.28
2023-01-05T07:14:30.815Z,2.95
2023-01-05T07:16:58.314Z,6.38
2023-01-05T07:19:25.522Z,3.17
2023-01-05T07:21:56.775Z,2.60
2023-01-05T07:24:24.794Z,4.35
2023-01-05T07:26:51.984Z,4.20
2023-01-05T07:29:19.190Z,2.17
2023-01-05T07:31:47.713Z,3.78
2023-01-05T07:34:14.917Z,3.58
2023-01-05T07:36:42.138Z,3.08
2023-01-05T07:39:09.336Z,3.28
2023-01-05T07:41:36.509Z,3.08
2023-01-05T07:44:05.302Z,3.47
2023-01-05T07:46:32.562Z,2.75
2023-01-05T07:48:59.846Z,1.90
2023-01-05T07:51:27.025Z,2.22
2023-01-05T07:53:56.125Z,3.03
2023-01-05T07:56:23.444Z,3.40
2023-01-05T07:58:50.666Z,4.38
2023-01-05T08:01:18.587Z,2.45
2023-01-05T08:03:46.563Z,4.03
2023-01-05T08:06:19.604Z,3.33
2023-01-05T08:08:47.403Z,4.32
2023-01-05T08:11:16.124Z,2.70
2023-01-05T08:13:59.934Z,3.50
2023-01-05T08:16:32.132Z,2.63
2023-01-05T08:19:00.037Z,3.47
2023-01-05T08:21:27.489Z,2.90
2023-01-05T08:23:54.871Z,4.47
2023-01-05T08:26:23.927Z,4.18
2023-01-05T08:28:51.857Z,1.77
2023-01-05T08:31:26.018Z,3.20
2023-01-05T08:34:00.427Z,4.47
2023-01-05T08:36:28.138Z,2.92
2023-01-05T08:38:55.992Z,4.65
2023-01-05T08:41:28.608Z,3.80
2023-01-05T08:43:57.664Z,4.43
2023-01-05T08:46:27.216Z,3.38
2023-01-05T08:48:56.943Z,3.33
2023-01-05T08:51:24.625Z,3.70
2023-01-05T08:53:52.145Z,2.70
2023-01-05T08:56:19.649Z,3.22
2023-01-05T08:58:47.088Z,2.60
2023-01-05T09:01:16.959Z,4.88
2023-01-05T09:03:44.818Z,4.32
2023-01-05T09:06:13.327Z,2.35
2023-01-05T09:08:42.312Z,4.07
2023-01-05T09:11:17.759Z,4.97
2023-01-05T09:13:59.353Z,3.08
2023-01-05T09:17:04.663Z,3.63
2023-01-05T09:19:16.896Z,4.25
2023-01-05T09:21:44.702Z,3.03
2023-01-05T09:24:13.333Z,2.40
2023-01-05T09:26:42.178Z,3.50
2023-01-05T09:29:10.361Z,2.55
2023-01-05T09:31:37.786Z,2.45
2023-01-05T09:34:05.177Z,1.80
2023-01-05T09:36:32.791Z,2.30
2023-01-05T09:39:00.016Z,3.08
2023-01-05T09:41:43.034Z,2.63
2023-01-05T09:44:58.927Z,2.40
2023-01-05T09:47:36.862Z,2.53
2023-01-05T09:50:08.762Z,1.75
2023-01-05T09:52:38.687Z,1.98
2023-01-05T09:55:21.315Z,1.52
2023-01-05T09:58:10.569Z,2.17
2023-01-05T10:00:43.489Z,1.23
2023-01-05T10:03:44.689Z,1.65
2023-01-05T10:06:06.166Z,1.80
2023-01-05T10:08:38.454Z,1.38
2023-01-05T10:11:37.848Z,0.90
2023-01-05T10:14:24.546Z,1.45
2023-01-05T10:17:02.736Z,1.40
2023-01-05T10:19:39.291Z,1.83
2023-01-05T10:22:18.612Z,1.13
2023-01-05T10:25:13.769Z,1.67
2023-01-05T10:27:51.844Z,1.30
2023-01-05T10:30:26.716Z,1.50
2023-01-05T10:33:21.823Z,0.73
2023-01-05T10:36:48.831Z,1.23
2023-01-05T10:39:54.163Z,1.15
2023-01-05T10:42:38.283Z,0.90
2023-01-05T10:45:14.729Z,1.15
2023-01-05T10:47:46.287Z,0.90
2023-01-05T10:50:31.874Z,1.13
2023-01-05T10:53:09.223Z,0.73
2023-01-05T10:58:29.179Z,0.63
2023-01-05T11:01:26.168Z,0.60
2023-01-05T11:06:50.114Z,0.60
2023-01-05T11:09:22.620Z,0.77
2023-01-05T11:12:01.393Z,0.90
2023-01-05T11:14:36.943Z,1.00
2023-01-05T11:17:07.754Z,0.60
2023-01-05T11:19:44.384Z,0.70
2023-01-05T11:22:28.143Z,0.60
2023-01-05T11:25:12.776Z,0.52
2023-01-05T11:27:40.451Z,0.52
2023-01-05T11:30:16.728Z,0.60
2023-01-05T11:32:44.918Z,0.57
2023-01-05T11:35:25.690Z,0.40
2023-01-05T11:37:52.887Z,0.40
2023-01-05T11:40:24.091Z,0.55
2023-01-05T11:42:51.412Z,0.50
2023-01-05T11:45:47.288Z,0.80
2023-01-05T11:48:20.629Z,0.40
2023-01-05T11:50:53.828Z,0.43
2023-01-05T11:53:24.059Z,0.60
2023-01-05T11:56:21.005Z,0.50
2023-01-05T11:58:50.714Z,0.50
2023-01-05T12:01:17.882Z,0.45
2023-01-05T12:03:59.345Z,0.52
2023-01-05T12:06:44.714Z,0.60
2023-01-05T12:09:34.954Z,0.60
2023-01-05T12:12:21.650Z,0.77
2023-01-05T12:14:51.869Z,0.60
2023-01-05T12:17:47.893Z,0.50
2023-01-05T12:20:33.551Z,0.80
2023-01-05T12:23:19.153Z,0.60
2023-01-05T12:26:10.360Z,0.98
2023-01-05T12:35:34.275Z,0.70
2023-01-05T12:38:48.581Z,1.52
2023-01-05T12:41:21.565Z,0.85
2023-01-05T12:44:01.771Z,0.90
2023-01-05T12:46:42.558Z,0.80
2023-01-05T12:49:25.826Z,0.60
2023-01-05T12:52:07.052Z,1.00
2023-01-05T12:55:02.106Z,0.80
2023-01-05T12:57:38.060Z,1.05
2023-01-05T13:00:08.387Z,1.95
2023-01-05T13:02:36.793Z,1.13
2023-01-05T13:05:14.315Z,0.82
2023-01-05T13:08:16.102Z,1.02
2023-01-05T13:10:56.438Z,1.27
2023-01-05T13:13:36.190Z,1.17
2023-01-05T13:16:17.996Z,1.23
2023-01-05T13:19:01.046Z,0.73
2023-01-05T13:21:29.137Z,0.98
2023-01-05T13:24:04.534Z,1.38
2023-01-05T13:26:37.770Z,0.77
2023-01-05T13:29:05.575Z,1.13
2023-01-05T13:32:09.565Z,0.73
2023-01-05T13:35:08.380Z,1.00
2023-01-05T13:38:03.669Z,0.85
2023-01-05T13:43:32.259Z,1.98
2023-01-05T13:49:09.161Z,1.10
2023-01-05T13:51:55.233Z,1.60
2023-01-05T13:54:43.098Z,1.77
2023-01-05T13:57:24.861Z,1.73
2023-01-05T14:00:06.147Z,1.55
2023-01-05T14:02:46.651Z,1.77
2023-01-05T14:05:28.948Z,1.50
2023-01-05T14:07:59.087Z,1.30
2023-01-05T14:10:29.886Z,1.80
2023-01-05T14:12:58.484Z,1.25
2023-01-05T14:15:44.391Z,1.20
2023-01-05T14:18:13.585Z,1.83
2023-01-05T14:20:46.529Z,1.48
2023-01-05T14:23:23.478Z,1.48
2023-01-05T14:26:00.825Z,0.98
2023-01-05T14:28:31.129Z,1.30
2023-01-05T14:31:21.633Z,1.70
2023-01-05T14:33:58.163Z,1.67
2023-01-05T14:36:29.528Z,1.48
2023-01-05T14:39:01.629Z,1.27
2023-01-05T14:41:31.094Z,1.33
2023-01-05T14:44:01.363Z,1.30
2023-01-05T14:46:42.303Z,1.63
2023-01-05T14:49:31.220Z,1.35
2023-01-05T14:52:01.266Z,4.13
2023-01-05T14:54:41.507Z,3.35
2023-01-05T14:57:20.831Z,1.55
2023-01-05T14:59:50.099Z,1.30
2023-01-05T15:02:26.669Z,1.55
2023-01-05T15:05:00.492Z,1.67
2023-01-05T15:07:46.065Z,2.65
2023-01-05T15:10:29.509Z,1.55
2023-01-05T15:13:08.688Z,1.65
2023-01-05T15:15:47.945Z,1.63
2023-01-05T15:18:24.091Z,2.45
2023-01-05T15:21:00.205Z,1.45
2023-01-05T15:23:55.493Z,1.70
2023-01-05T15:28:52.746Z,2.00
2023-01-05T15:31:30.071Z,1.92
2023-01-05T15:34:38.323Z,2.55
2023-01-05T15:37:37.421Z,5.13
2023-01-05T15:40:26.746Z,5.32
2023-01-05T15:42:57.211Z,2.08
2023-01-05T15:45:35.120Z,1.88
2023-01-05T15:48:13.811Z,2.05
2023-01-05T15:50:50.051Z,2.53
2023-01-05T15:53:40.841Z,3.45
2023-01-05T15:56:30.500Z,3.42
2023-01-05T15:58:58.343Z,3.13
2023-01-05T16:01:27.674Z,2.33
2023-01-05T16:04:08.908Z,2.17
2023-01-05T16:06:39.742Z,1.98
2023-01-05T16:09:22.387Z,1.90
2023-01-05T16:11:51.605Z,2.28
2023-01-05T16:14:29.017Z,1.80
2023-01-05T16:17:10.413Z,1.90
2023-01-05T16:19:49.292Z,1.10
2023-01-05T16:22:26.699Z,1.58
2023-01-05T16:25:18.272Z,2.33
2023-01-05T16:27:50.005Z,2.13
2023-01-05T16:30:31.137Z,1.42
2023-01-05T16:33:20.712Z,0.90
2023-01-05T16:35:50.073Z,0.93
2023-01-05T16:38:24.705Z,1.38
2023-01-05T16:43:35.759Z,1.48
2023-01-05T16:46:20.680Z,1.40
2023-01-05T16:48:54.699Z,1.20
2023-01-05T16:51:31.888Z,1.33
2023-01-05T16:54:15.073Z,1.10
2023-01-05T16:56:53.475Z,1.00
2023-01-05T16:59:44.268Z,1.20
2023-01-05T17:02:32.017Z,1.42
2023-01-05T17:04:59.226Z,1.55
2023-01-05T17:07:26.605Z,1.20
2023-01-05T17:09:54.161Z,1.65
2023-01-05T17:12:21.404Z,1.40
2023-01-05T17:14:48.702Z,0.93
2023-01-05T17:17:16.141Z,1.00
2023-01-05T17:19:43.476Z,1.00
2023-01-05T17:22:12.724Z,1.00
2023-01-05T17:24:40.462Z,0.90
2023-01-05T17:29:38.799Z,0.90
2023-01-05T17:32:06.058Z,0.80
2023-01-05T17:34:33.295Z,1.33
2023-01-05T17:37:01.273Z,1.13
2023-01-05T17:39:29.039Z,1.20
2023-01-05T17:42:21.277Z,0.73
2023-01-05T17:44:51.984Z,1.25
2023-01-05T17:47:19.426Z,1.38
2023-01-05T17:49:46.636Z,2.42
2023-01-05T17:52:14.085Z,0.73
2023-01-05T17:54:41.903Z,1.05
2023-01-05T17:57:12.446Z,0.90
2023-01-05T17:59:39.732Z,1.67
2023-01-05T18:02:07.231Z,0.95
2023-01-05T18:04:34.583Z,1.27
2023-01-05T18:07:01.861Z,0.80
2023-01-05T18:09:29.385Z,0.77
2023-01-05T18:11:56.677Z,0.75
2023-01-05T18:14:23.958Z,1.20
2023-01-05T18:16:51.154Z,0.77
2023-01-05T18:19:18.402Z,1.50
2023-01-05T18:21:45.650Z,0.63
2023-01-05T18:24:12.879Z,0.57
2023-01-05T18:26:40.061Z,0.60
2023-01-05T18:29:07.336Z,1.08
2023-01-05T18:31:40.258Z,0.70
2023-01-05T18:34:09.238Z,0.82
2023-01-05T18:36:36.476Z,0.52
2023-01-05T18:39:03.737Z,0.68
2023-01-05T18:41:30.944Z,0.95
2023-01-05T18:43:58.203Z,0.65
2023-01-05T18:46:25.521Z,0.50
2023-01-05T18:48:52.973Z,0.90
2023-01-05T18:51:20.225Z,0.50
2023-01-05T18:53:47.461Z,0.40
2023-01-05T18:56:15.724Z,0.60
2023-01-05T18:58:43.498Z,2.75
2023-01-05T19:01:16.718Z,0.55
2023-01-05T19:03:44.481Z,0.40
2023-01-05T19:06:17.774Z,0.65
2023-01-05T19:08:48.900Z,0.60
2023-01-05T19:11:17.601Z,0.63
2023-01-05T19:13:45.489Z,0.80
2023-01-05T19:16:15.239Z,0.60
2023-01-05T19:18:43.683Z,0.50
2023-01-05T19:21:10.920Z,0.70
2023-01-05T19:23:38.193Z,0.60
2023-01-05T19:26:06.930Z,0.70
2023-01-05T19:28:38.604Z,0.50
2023-01-05T19:31:11.146Z,0.80
2023-01-05T19:33:39.136Z,1.00
2023-01-05T19:36:11.664Z,0.80
2023-01-05T19:38:39.464Z,1.08
2023-01-05T19:41:08.648Z,0.85
2023-01-05T19:43:37.281Z,0.75
2023-01-05T19:46:06.916Z,1.20
2023-01-05T19:48:36.563Z,0.80
2023-01-05T19:51:08.776Z,0.80
2023-01-05T19:53:37.572Z,0.70
2023-01-05T19:56:10.210Z,1.75
2023-01-05T19:58:37.621Z,0.85
2023-01-05T20:01:09.733Z,1.00
2023-01-05T20:03:36.923Z,1.30
2023-01-05T20:06:09.012Z,1.77
2023-01-05T20:08:37.314Z,1.45
2023-01-05T20:11:09.670Z,1.63
2023-01-05T20:13:37.154Z,1.45
2023-01-05T20:16:10.648Z,0.70
2023-01-05T20:18:39.025Z,2.75
2023-01-05T20:21:08.579Z,0.90
2023-01-05T20:23:38.553Z,0.70
2023-01-05T20:26:10.621Z,1.20
2023-01-05T20:28:38.474Z,1.55
2023-01-05T20:31:13.870Z,1.08
2023-01-05T20:33:41.082Z,0.90
2023-01-05T20:36:08.426Z,1.15
2023-01-05T20:38:35.916Z,0.80
2023-01-05T20:41:13.062Z,1.52
2023-01-05T20:43:42.924Z,0.90
2023-01-05T20:46:10.353Z,1.55
2023-01-05T20:48:37.959Z,1.40
2023-01-05T20:51:06.913Z,0.90
2023-01-05T20:53:34.452Z,1.38
2023-01-05T20:56:08.784Z,1.25
2023-01-05T20:58:36.495Z,1.05
2023-01-05T21:01:10.814Z,0.90
2023-01-05T21:03:39.766Z,1.10
2023-01-05T21:06:10.299Z,0.70
2023-01-05T21:08:38.776Z,0.70
2023-01-05T21:11:15.853Z,0.80
2023-01-05T21:13:45.080Z,0.95
2023-01-05T21:16:34.809Z,2.05
2023-01-05T21:19:02.434Z,0.60
2023-01-05T21:21:30.541Z,0.70
2023-01-05T21:23:58.340Z,0.80
2023-01-05T21:26:25.767Z,1.08
2023-01-05T21:28:54.250Z,0.80
2023-01-05T21:31:24.389Z,1.42
2023-01-05T21:33:52.492Z,0.88
2023-01-05T21:36:25.505Z,0.60
2023-01-05T21:39:03.620Z,0.60
2023-01-05T21:41:50.737Z,0.70
2023-01-05T21:44:20.065Z,0.60
2023-01-05T21:46:48.492Z,0.90
2023-01-05T21:49:16.990Z,0.95
2023-01-05T21:52:03.071Z,0.77
2023-01-05T21:54:49.421Z,0.63
2023-01-05T21:57:17.138Z,0.90
2023-01-05T21:59:44.971Z,0.98
2023-01-05T22:02:13.320Z,1.10
2023-01-05T22:04:41.005Z,0.68
2023-01-05T22:07:08.284Z,0.85
2023-01-05T22:09:36.344Z,0.75
2023-01-05T22:12:10.494Z,0.70
2023-01-05T22:14:38.365Z,0.60
2023-01-05T22:17:07.314Z,0.80
2023-01-05T22:19:34.849Z,1.25
2023-01-05T22:22:02.231Z,1.00
2023-01-05T22:24:29.795Z,0.73
2023-01-05T22:26:57.020Z,0.70
2023-01-05T22:29:24.868Z,0.90
2023-01-05T22:31:52.237Z,0.90
2023-01-05T22:34:19.774Z,0.80
2023-01-05T22:36:47.449Z,0.77
2023-01-05T22:39:14.712Z,0.77
2023-01-05T22:41:42.477Z,0.60
2023-01-05T22:44:09.827Z,1.33
2023-01-05T22:46:37.200Z,1.08
2023-01-05T22:49:04.482Z,0.90
2023-01-05T22:51:37.074Z,0.60
2023-01-05T22:54:05.181Z,0.73
2023-01-05T22:56:33.525Z,0.80
2023-01-05T22:59:01.847Z,0.80
2023-01-05T23:01:35.137Z,0.80
2023-01-05T23:04:04.431Z,0.60
2023-01-05T23:06:32.640Z,0.50
2023-01-05T23:09:00.442Z,0.88
2023-01-05T23:11:30.983Z,0.68
2023-01-05T23:13:59.600Z,0.60
2023-01-05T23:16:27.969Z,0.85
2023-01-05T23:18:55.434Z,0.63
2023-01-05T23:21:24.306Z,0.77
2023-01-05T23:23:53.056Z,0.60
2023-01-05T23:26:20.887Z,1.27
2023-01-05T23:28:48.941Z,0.50
2023-01-05T23:31:16.576Z,0.70
2023-01-05T23:33:44.780Z,0.85
2023-01-05T23:36:13.723Z,0.52
2023-01-05T23:38:41.169Z,0.45
2023-01-05T23:41:10.542Z,0.50
2023-01-05T23:43:40.083Z,0.90
2023-01-05T23:46:10.422Z,1.58
2023-01-05T23:48:38.568Z,0.80
2023-01-05T23:51:07.848Z,0.60
2023-01-05T23:53:35.064Z,0.40
2023-01-05T23:56:08.208Z,0.40
2023-01-05T23:58:36.206Z,0.50
